Time;durP1;ratioP1;P1;durP2;ratioP2;P2;SDS_P1;SDS_P2;PMS_P1;PMS_P2;Temp;Humidity;BMP_temperature;BMP_pressure;BME280_temperature;BME280_humidity;BME280_pressure;Samples;Min_cycle;Max_cycle;Signal;HPM_P1;HPM_P2
2022/04/08 00:01:25;;;;;;;7.57;1.42;;;9.60;99.90;;;;;;5027919;28;20024;-73
2022/04/08 00:03:54;;;;;;;6.20;1.63;;;9.90;99.90;;;;;;5062149;28;20040;-75
2022/04/08 00:06:23;;;;;;;6.05;1.30;;;9.80;99.90;;;;;;5078306;28;20037;-75
2022/04/08 00:08:49;;;;;;;5.97;1.55;;;9.30;99.90;;;;;;5061814;28;20073;-73
2022/04/08 00:11:15;;;;;;;7.07;1.52;;;9.30;99.90;;;;;;5041823;28;20049;-75
2022/04/08 00:13:41;;;;;;;3.78;1.00;;;9.10;99.90;;;;;;5073771;28;20181;-72
2022/04/08 00:16:08;;;;;;;4.43;1.00;;;9.50;99.90;;;;;;5050973;28;20029;-73
2022/04/08 00:18:34;;;;;;;7.43;1.40;;;9.60;99.90;;;;;;5047812;28;20254;-75
2022/04/08 00:21:01;;;;;;;3.35;0.90;;;9.40;99.90;;;;;;5055842;28;20037;-73
2022/04/08 00:23:27;;;;;;;2.15;1.50;;;9.40;99.90;;;;;;5032998;28;20048;-73
2022/04/08 00:25:53;;;;;;;2.47;0.93;;;9.40;99.90;;;;;;5070374;28;20030;-72
2022/04/08 00:28:18;;;;;;;6.00;1.55;;;8.80;99.90;;;;;;5069404;28;20044;-76
2022/04/08 00:30:44;;;;;;;0.90;0.43;;;8.60;99.90;;;;;;5060421;28;20045;-76
2022/04/08 00:33:10;;;;;;;0.82;0.50;;;9.10;99.90;;;;;;5037260;28;20037;-78
2022/04/08 00:35:35;;;;;;;3.13;0.60;;;9.00;99.90;;;;;;5024023;28;20113;-80
2022/04/08 00:38:02;;;;;;;2.88;0.77;;;9.00;99.90;;;;;;5022715;28;20067;-75
2022/04/08 00:40:28;;;;;;;2.28;0.70;;;8.80;99.90;;;;;;5054887;28;20041;-77
2022/04/08 00:42:54;;;;;;;1.92;0.70;;;9.20;99.90;;;;;;5082149;28;20032;-77
2022/04/08 00:45:20;;;;;;;1.83;0.82;;;8.30;99.90;;;;;;5036144;28;20263;-76
2022/04/08 00:47:45;;;;;;;4.10;0.68;;;8.10;99.90;;;;;;5065950;28;20205;-77
2022/04/08 00:50:12;;;;;;;1.98;0.88;;;8.10;99.90;;;;;;5050879;28;20068;-73
2022/04/08 00:52:44;;;;;;;3.72;1.00;;;9.10;99.90;;;;;;5072852;28;20059;-75
2022/04/08 00:55:10;;;;;;;7.53;1.90;;;8.50;99.90;;;;;;5046888;28;20032;-78
2022/04/08 00:57:36;;;;;;;5.47;0.88;;;9.00;99.90;;;;;;5038741;28;20034;-74
2022/04/08 01:00:07;;;;;;;5.50;2.67;;;8.70;99.90;;;;;;5056863;28;20060;-73
2022/04/08 01:02:33;;;;;;;4.85;1.30;;;10.20;99.90;;;;;;5069196;28;20067;-76
2022/04/08 01:04:58;;;;;;;5.47;1.45;;;9.30;99.90;;;;;;5047497;28;20065;-74
2022/04/08 01:07:24;;;;;;;10.93;1.95;;;9.60;99.90;;;;;;5047275;28;20037;-76
2022/04/08 01:09:54;;;;;;;4.95;1.33;;;8.70;99.90;;;;;;5016660;28;20132;-75
2022/04/08 01:12:20;;;;;;;8.48;1.70;;;9.30;99.90;;;;;;5029875;28;20247;-70
2022/04/08 01:14:45;;;;;;;6.47;1.98;;;9.10;99.90;;;;;;5037398;28;20033;-71
2022/04/08 01:17:11;;;;;;;6.55;1.73;;;8.70;99.90;;;;;;5037889;28;20280;-72
2022/04/08 01:19:37;;;;;;;7.82;2.00;;;9.10;99.90;;;;;;5022143;28;20059;-70
2022/04/08 01:22:03;;;;;;;13.52;2.13;;;9.80;99.90;;;;;;5070254;28;20026;-74
2022/04/08 01:24:34;;;;;;;10.85;2.63;;;8.60;99.90;;;;;;5040142;28;20044;-74
2022/04/08 01:27:02;;;;;;;8.10;1.75;;;8.70;99.90;;;;;;5067779;28;20123;-72
2022/04/08 01:29:28;;;;;;;9.02;1.80;;;9.10;99.90;;;;;;5068604;28;20044;-74
2022/04/08 01:31:54;;;;;;;8.18;1.40;;;9.90;99.90;;;;;;5020572;28;20029;-77
2022/04/08 01:34:19;;;;;;;10.15;2.20;;;8.80;99.90;;;;;;5054772;28;20033;-77
2022/04/08 01:36:45;;;;;;;10.77;2.20;;;9.20;99.90;;;;;;5038801;28;20037;-77
2022/04/08 01:39:11;;;;;;;8.98;2.00;;;9.90;99.90;;;;;;5039916;28;20057;-77
2022/04/08 01:41:36;;;;;;;6.93;1.40;;;10.10;99.90;;;;;;5040675;28;20104;-73
2022/04/08 01:44:02;;;;;;;9.52;1.80;;;9.60;99.90;;;;;;5027911;28;20259;-75
2022/04/08 01:46:28;;;;;;;4.15;1.40;;;10.10;99.90;;;;;;5058544;28;20071;-73
2022/04/08 01:48:54;;;;;;;4.07;1.27;;;8.50;99.90;;;;;;5057364;28;20139;-75
2022/04/08 01:51:24;;;;;;;6.07;1.90;;;10.10;99.90;;;;;;5054126;28;20041;-72
2022/04/08 01:53:50;;;;;;;7.40;1.63;;;8.70;99.90;;;;;;5038131;28;20041;-75
2022/04/08 01:56:16;;;;;;;8.63;1.70;;;9.10;99.90;;;;;;5039192;28;20072;-74
2022/04/08 01:58:41;;;;;;;8.77;1.90;;;9.30;99.90;;;;;;5024700;28;20026;-75
2022/04/08 02:01:07;;;;;;;7.72;1.80;;;9.80;99.90;;;;;;5035733;28;20037;-75
2022/04/08 02:03:33;;;;;;;11.93;2.60;;;9.60;99.90;;;;;;5070627;28;20040;-72
2022/04/08 02:05:59;;;;;;;12.32;1.83;;;9.50;99.90;;;;;;5039988;28;20033;-72
2022/04/08 02:08:25;;;;;;;6.55;1.52;;;9.70;99.90;;;;;;5053301;28;20036;-72
2022/04/08 02:10:53;;;;;;;5.03;1.30;;;9.50;99.90;;;;;;5038913;28;20300;-72
2022/04/08 02:13:20;;;;;;;8.50;2.08;;;9.60;99.90;;;;;;5051760;28;20044;-74
2022/04/08 02:15:48;;;;;;;7.82;2.08;;;8.90;99.90;;;;;;5066712;28;20196;-72
2022/04/08 02:18:14;;;;;;;6.57;1.73;;;9.30;99.90;;;;;;5023764;28;20033;-74
2022/04/08 02:20:41;;;;;;;7.65;1.45;;;8.30;99.90;;;;;;5022525;28;20240;-73
2022/04/08 02:23:06;;;;;;;7.95;1.92;;;8.40;99.90;;;;;;5032181;28;20029;-75
2022/04/08 02:25:33;;;;;;;9.20;2.15;;;8.60;99.90;;;;;;5019113;28;20544;-73
2022/04/08 02:28:01;;;;;;;10.60;1.83;;;8.30;99.90;;;;;;5029202;28;20040;-75
2022/04/08 02:30:27;;;;;;;8.73;1.90;;;8.00;99.90;;;;;;5070987;28;20048;-75
2022/04/08 02:32:52;;;;;;;7.50;1.42;;;8.10;99.90;;;;;;5020250;28;20033;-73
2022/04/08 02:35:20;;;;;;;9.30;1.73;;;9.20;99.90;;;;;;5039426;28;20033;-72
2022/04/08 02:37:46;;;;;;;6.75;1.95;;;9.40;99.90;;;;;;5038109;28;20091;-73
2022/04/08 02:40:11;;;;;;;12.65;2.03;;;7.90;99.90;;;;;;5075901;28;20236;-73
2022/04/08 02:42:37;;;;;;;14.00;2.33;;;8.60;99.90;;;;;;5037911;28;20044;-74
2022/04/08 02:45:03;;;;;;;11.02;1.90;;;8.00;99.90;;;;;;5054097;28;20100;-73
2022/04/08 02:47:29;;;;;;;9.48;1.90;;;9.20;99.90;;;;;;5059359;28;20071;-73
2022/04/08 02:49:55;;;;;;;5.43;1.73;;;8.80;99.90;;;;;;5040283;28;20036;-73
2022/04/08 02:52:20;;;;;;;7.65;1.52;;;8.00;99.90;;;;;;5044272;28;20225;-73
2022/04/08 02:54:46;;;;;;;6.53;1.85;;;7.50;99.90;;;;;;5064406;28;20048;-74
2022/04/08 02:57:12;;;;;;;9.52;1.63;;;8.30;99.90;;;;;;5019653;28;20112;-74
2022/04/08 02:59:37;;;;;;;7.47;2.08;;;8.40;99.90;;;;;;5025728;28;20033;-73
2022/04/08 03:02:03;;;;;;;8.57;1.65;;;7.40;99.90;;;;;;5054201;28;20072;-73
2022/04/08 03:04:29;;;;;;;5.90;1.40;;;7.50;99.90;;;;;;5060537;28;20049;-74
2022/04/08 03:06:55;;;;;;;10.52;1.55;;;8.10;99.90;;;;;;5039119;28;20040;-74
2022/04/08 03:09:21;;;;;;;4.93;1.20;;;6.80;99.90;;;;;;5021848;28;20089;-76
2022/04/08 03:11:47;;;;;;;9.70;1.63;;;6.70;99.90;;;;;;5057114;28;20346;-75
2022/04/08 03:14:13;;;;;;;6.10;1.60;;;7.90;99.90;;;;;;5057015;28;20113;-73
2022/04/08 03:16:39;;;;;;;5.95;1.30;;;7.40;99.90;;;;;;5040928;28;20036;-70
2022/04/08 03:19:05;;;;;;;9.50;1.63;;;7.10;99.90;;;;;;5039677;28;20311;-73
2022/04/08 03:21:30;;;;;;;7.28;1.65;;;7.70;99.90;;;;;;5043992;28;20223;-76
2022/04/08 03:23:57;;;;;;;6.00;1.73;;;7.50;99.90;;;;;;5039831;28;20244;-73
2022/04/08 03:26:23;;;;;;;5.30;1.35;;;7.20;99.90;;;;;;5040391;28;20041;-73
2022/04/08 03:28:49;;;;;;;6.30;1.30;;;6.30;99.90;;;;;;5041363;28;20288;-74
2022/04/08 03:31:15;;;;;;;7.32;1.42;;;6.20;99.90;;;;;;5023308;28;20048;-72
2022/04/08 03:33:41;;;;;;;5.85;1.38;;;6.00;99.90;;;;;;5041325;28;20022;-74
2022/04/08 03:36:07;;;;;;;5.03;1.85;;;6.90;99.90;;;;;;5042426;28;20397;-72
2022/04/08 03:38:33;;;;;;;5.38;1.63;;;6.40;99.90;;;;;;5040697;28;20061;-71
2022/04/08 03:40:59;;;;;;;5.82;1.58;;;6.80;99.90;;;;;;5038267;28;20037;-74
2022/04/08 03:43:24;;;;;;;2.80;1.20;;;6.10;99.90;;;;;;5041432;28;20065;-73
2022/04/08 03:45:50;;;;;;;5.22;1.60;;;5.80;99.90;;;;;;5024236;28;20104;-73
2022/04/08 03:48:16;;;;;;;2.17;0.90;;;6.00;99.90;;;;;;5039878;28;20079;-73
2022/04/08 03:50:42;;;;;;;7.82;1.73;;;6.20;99.90;;;;;;5073662;28;20030;-71
2022/04/08 03:53:10;;;;;;;6.40;1.40;;;5.80;99.90;;;;;;5025537;28;20308;-73
2022/04/08 03:55:36;;;;;;;4.32;1.52;;;5.90;99.90;;;;;;5022817;28;20041;-74
2022/04/08 03:58:02;;;;;;;7.50;1.70;;;6.20;99.90;;;;;;5073851;28;20029;-73
2022/04/08 04:00:28;;;;;;;8.98;1.45;;;5.90;99.90;;;;;;5057597;28;20014;-74
2022/04/08 04:02:53;;;;;;;6.10;1.63;;;5.80;99.90;;;;;;5040579;28;20060;-73
2022/04/08 04:05:19;;;;;;;11.60;1.95;;;6.10;99.90;;;;;;5023839;28;20107;-74
2022/04/08 04:07:45;;;;;;;4.95;1.70;;;6.00;99.90;;;;;;5041590;28;20033;-73
2022/04/08 04:10:14;;;;;;;7.57;1.50;;;6.20;99.90;;;;;;5021720;28;20072;-72
2022/04/08 04:12:42;;;;;;;7.68;1.50;;;6.10;99.90;;;;;;5024773;28;20049;-75
2022/04/08 04:15:09;;;;;;;3.78;1.40;;;6.10;99.90;;;;;;5039838;28;20144;-73
2022/04/08 04:17:35;;;;;;;4.93;1.20;;;5.90;99.90;;;;;;5039648;28;20212;-74
2022/04/08 04:20:01;;;;;;;2.70;1.23;;;6.10;99.90;;;;;;5026729;28;20052;-75
2022/04/08 04:22:26;;;;;;;1.02;0.90;;;6.20;99.90;;;;;;5008159;28;20336;-74
2022/04/08 04:24:53;;;;;;;3.17;1.20;;;5.70;99.90;;;;;;5073581;28;20036;-75
2022/04/08 04:27:18;;;;;;;3.13;1.33;;;5.70;99.90;;;;;;5058150;28;20034;-75
2022/04/08 04:29:44;;;;;;;2.80;1.30;;;5.50;99.90;;;;;;5005795;28;20268;-73
2022/04/08 04:32:09;;;;;;;4.30;1.25;;;6.10;99.90;;;;;;5074042;28;20083;-77
2022/04/08 04:34:37;;;;;;;8.07;1.55;;;5.50;99.90;;;;;;5040737;28;20057;-76
2022/04/08 04:37:04;;;;;;;4.65;1.77;;;6.80;99.90;;;;;;5057407;28;20076;-73
2022/04/08 04:39:30;;;;;;;4.00;1.20;;;6.10;99.90;;;;;;5021151;28;20386;-75
2022/04/08 04:41:55;;;;;;;3.92;1.35;;;5.70;99.90;;;;;;5067911;28;20033;-73
2022/04/08 04:44:21;;;;;;;3.45;1.60;;;7.10;99.90;;;;;;5034501;28;20516;-74
2022/04/08 04:46:47;;;;;;;2.83;1.50;;;6.00;99.90;;;;;;5039346;28;20096;-75
2022/04/08 04:49:13;;;;;;;4.65;1.52;;;5.90;99.90;;;;;;5056708;28;20059;-74
2022/04/08 04:51:39;;;;;;;6.07;1.60;;;5.80;99.90;;;;;;5039788;28;20080;-76
2022/04/08 04:54:05;;;;;;;1.70;1.20;;;5.80;99.90;;;;;;5056873;28;20029;-75
2022/04/08 04:56:30;;;;;;;4.07;1.92;;;6.30;99.90;;;;;;5036573;28;20069;-72
2022/04/08 04:58:56;;;;;;;3.13;1.50;;;6.20;99.90;;;;;;5036683;28;20240;-73
2022/04/08 05:01:21;;;;;;;2.90;1.60;;;6.10;99.90;;;;;;5019054;28;20029;-72
2022/04/08 05:03:47;;;;;;;3.70;1.60;;;6.00;99.90;;;;;;5019832;28;20030;-72
2022/04/08 05:06:13;;;;;;;5.57;1.45;;;6.30;99.90;;;;;;5021251;28;20040;-74
2022/04/08 05:08:38;;;;;;;4.55;1.48;;;6.30;99.90;;;;;;5073308;28;20033;-72
2022/04/08 05:11:04;;;;;;;6.82;1.63;;;6.30;99.90;;;;;;5005648;28;20037;-72
2022/04/08 05:13:30;;;;;;;2.38;1.40;;;5.90;99.90;;;;;;5073244;28;20255;-73
2022/04/08 05:15:55;;;;;;;2.63;1.55;;;6.10;99.90;;;;;;5021393;28;20208;-72
2022/04/08 05:18:21;;;;;;;3.50;1.58;;;6.00;99.90;;;;;;5039859;28;20359;-74
2022/04/08 05:20:49;;;;;;;3.53;1.55;;;6.60;99.90;;;;;;5038826;28;20197;-74
2022/04/08 05:23:15;;;;;;;5.63;1.40;;;6.60;99.90;;;;;;5057114;28;20220;-74
2022/04/08 05:25:40;;;;;;;3.03;1.50;;;6.30;99.90;;;;;;5019963;28;20033;-73
2022/04/08 05:28:06;;;;;;;2.17;1.10;;;6.10;99.90;;;;;;5071425;28;20021;-75
2022/04/08 05:30:32;;;;;;;3.35;1.50;;;6.70;99.90;;;;;;5038312;28;20037;-74
2022/04/08 05:32:58;;;;;;;10.55;2.05;;;6.70;99.90;;;;;;5072605;28;20109;-76
2022/04/08 05:35:23;;;;;;;4.40;1.55;;;6.60;99.90;;;;;;5021994;28;20231;-74
2022/04/08 05:37:49;;;;;;;3.20;1.42;;;6.60;99.90;;;;;;5037370;28;20111;-73
2022/04/08 05:40:17;;;;;;;5.47;1.67;;;6.80;99.90;;;;;;5020913;28;20048;-76
2022/04/08 05:42:44;;;;;;;2.00;1.50;;;6.20;99.90;;;;;;5040664;28;20111;-72
2022/04/08 05:45:16;;;;;;;3.90;1.42;;;6.40;99.90;;;;;;5071068;28;20037;-75
2022/04/08 05:47:42;;;;;;;4.88;1.27;;;6.90;99.90;;;;;;5071163;28;20201;-76
2022/04/08 05:50:09;;;;;;;3.95;1.40;;;6.30;99.90;;;;;;5071044;28;20025;-74
2022/04/08 05:52:35;;;;;;;3.30;2.15;;;6.40;99.90;;;;;;5006197;28;20219;-74
2022/04/08 05:55:00;;;;;;;6.97;1.75;;;6.60;99.90;;;;;;5039873;28;20100;-77
2022/04/08 05:57:26;;;;;;;4.75;1.50;;;6.40;99.90;;;;;;5020157;28;20030;-75
2022/04/08 05:59:59;;;;;;;3.38;1.45;;;6.50;99.90;;;;;;5021670;28;20061;-73
2022/04/08 06:02:24;;;;;;;3.22;1.60;;;6.50;99.90;;;;;;5055371;28;20263;-72
2022/04/08 06:04:50;;;;;;;2.53;1.70;;;6.70;99.90;;;;;;5036757;28;20059;-72
2022/04/08 06:07:16;;;;;;;2.90;1.80;;;6.50;99.90;;;;;;5022701;28;20037;-72
2022/04/08 06:09:41;;;;;;;5.10;1.73;;;6.50;99.90;;;;;;5038588;28;20197;-72
2022/04/08 06:12:07;;;;;;;6.20;1.70;;;6.40;99.90;;;;;;5021068;28;20044;-74
2022/04/08 06:14:33;;;;;;;6.25;1.92;;;6.40;99.90;;;;;;5054912;28;20052;-74
2022/04/08 06:16:59;;;;;;;4.30;1.60;;;6.70;99.90;;;;;;5021951;28;20037;-73
2022/04/08 06:19:24;;;;;;;6.25;1.90;;;6.70;99.90;;;;;;5038209;28;20063;-73
2022/04/08 06:21:50;;;;;;;4.45;1.40;;;6.40;99.90;;;;;;5022248;28;20021;-73
2022/04/08 06:24:16;;;;;;;7.60;1.60;;;6.40;99.90;;;;;;4990653;28;20120;-75
2022/04/08 06:26:41;;;;;;;4.88;1.77;;;6.80;99.90;;;;;;4999252;28;20039;-75
2022/04/08 06:29:08;;;;;;;4.07;1.70;;;7.10;99.90;;;;;;5022544;28;20052;-73
2022/04/08 06:31:34;;;;;;;4.40;1.70;;;6.90;99.90;;;;;;5021520;28;20033;-74
2022/04/08 06:34:01;;;;;;;3.10;1.70;;;7.00;99.90;;;;;;5034723;28;20197;-75
2022/04/08 06:36:28;;;;;;;7.53;1.90;;;6.70;99.90;;;;;;5037940;28;20037;-75
2022/04/08 06:38:54;;;;;;;4.68;1.90;;;7.00;99.90;;;;;;5038657;28;20363;-73
2022/04/08 06:41:21;;;;;;;7.03;1.90;;;6.70;99.90;;;;;;5069649;28;20045;-75
2022/04/08 06:43:47;;;;;;;4.60;1.83;;;7.10;99.90;;;;;;5038552;28;20033;-73
2022/04/08 06:46:13;;;;;;;5.28;1.98;;;6.80;99.90;;;;;;5073131;28;20277;-75
2022/04/08 06:48:38;;;;;;;2.97;1.70;;;7.30;99.90;;;;;;5074938;28;20044;-73
2022/04/08 06:51:04;;;;;;;5.22;1.92;;;7.10;99.90;;;;;;5074429;28;20030;-74
2022/04/08 06:53:34;;;;;;;6.78;1.95;;;7.40;99.90;;;;;;5042050;28;20283;-74
2022/04/08 06:56:01;;;;;;;4.40;1.90;;;7.30;99.90;;;;;;5072280;28;20043;-72
2022/04/08 06:58:31;;;;;;;4.70;1.48;;;7.50;99.90;;;;;;5074636;28;20040;-75
2022/04/08 07:00:57;;;;;;;5.13;1.90;;;7.40;99.90;;;;;;5074482;28;20029;-73
2022/04/08 07:03:23;;;;;;;4.78;1.63;;;7.50;99.90;;;;;;5024199;28;20044;-74
2022/04/08 07:05:49;;;;;;;2.92;1.42;;;7.40;99.90;;;;;;5023709;28;20073;-75
2022/04/08 07:08:15;;;;;;;6.00;1.65;;;7.40;99.90;;;;;;5074213;28;20350;-77
2022/04/08 07:10:41;;;;;;;3.70;1.60;;;7.30;99.90;;;;;;5024503;28;20033;-76
2022/04/08 07:13:07;;;;;;;3.80;1.67;;;7.60;99.90;;;;;;5024854;28;20243;-75
2022/04/08 07:15:33;;;;;;;3.90;1.88;;;7.60;99.90;;;;;;5024768;28;20287;-75
2022/04/08 07:17:59;;;;;;;4.60;1.60;;;7.50;99.90;;;;;;5025602;28;20025;-72
2022/04/08 07:20:25;;;;;;;7.45;1.58;;;7.40;99.90;;;;;;5042194;28;20331;-77
2022/04/08 07:22:51;;;;;;;6.95;1.90;;;7.90;99.90;;;;;;5057982;28;20037;-75
2022/04/08 07:25:18;;;;;;;3.60;1.80;;;7.60;99.90;;;;;;5041731;28;20272;-76
2022/04/08 07:27:46;;;;;;;2.10;1.48;;;7.60;99.90;;;;;;5023352;28;20033;-75
2022/04/08 07:30:13;;;;;;;4.40;1.70;;;7.80;99.90;;;;;;5006038;28;20104;-76
2022/04/08 07:32:38;;;;;;;5.05;1.70;;;7.70;99.90;;;;;;5072907;28;20037;-74
2022/04/08 07:35:05;;;;;;;7.00;1.60;;;8.00;99.90;;;;;;5056473;28;20333;-71
2022/04/08 07:37:32;;;;;;;7.22;1.90;;;8.00;99.90;;;;;;5054634;28;20125;-74
2022/04/08 07:39:58;;;;;;;5.32;1.60;;;8.00;99.90;;;;;;5040504;28;20121;-71
2022/04/08 07:42:25;;;;;;;4.60;1.80;;;8.20;99.90;;;;;;5074482;28;20101;-74
2022/04/08 07:44:51;;;;;;;4.50;1.75;;;8.30;99.90;;;;;;5040066;28;20029;-74
2022/04/08 07:47:18;;;;;;;6.30;1.55;;;8.30;99.90;;;;;;5023179;28;20287;-76
2022/04/08 07:49:44;;;;;;;3.65;1.30;;;8.50;99.90;;;;;;5024661;28;20088;-77
2022/04/08 07:52:13;;;;;;;5.10;1.80;;;8.30;99.90;;;;;;5024986;28;20235;-74
2022/04/08 07:54:39;;;;;;;4.70;1.58;;;8.40;99.90;;;;;;5040081;28;20045;-77
2022/04/08 07:57:05;;;;;;;5.32;1.52;;;8.00;99.90;;;;;;5024658;28;20080;-75
2022/04/08 07:59:33;;;;;;;3.67;1.20;;;7.90;99.90;;;;;;5024979;28;20205;-75
2022/04/08 08:01:58;;;;;;;4.20;1.15;;;7.90;99.90;;;;;;5058247;28;20029;-75
2022/04/08 08:04:24;;;;;;;5.07;1.10;;;7.50;99.90;;;;;;5055972;28;20256;-75
2022/04/08 08:06:50;;;;;;;1.10;0.73;;;8.00;99.90;;;;;;5024347;28;20026;-76
2022/04/08 08:09:15;;;;;;;3.42;1.10;;;7.70;99.90;;;;;;5024903;28;20036;-75
2022/04/08 08:11:41;;;;;;;2.60;1.30;;;7.80;99.90;;;;;;5071741;28;20108;-74
2022/04/08 08:14:07;;;;;;;5.43;1.48;;;8.00;99.90;;;;;;5057608;28;20030;-75
2022/04/08 08:16:32;;;;;;;1.75;1.00;;;8.00;99.90;;;;;;5038607;28;20370;-74
2022/04/08 08:18:58;;;;;;;4.30;1.00;;;8.30;99.90;;;;;;5028086;28;20038;-72
2022/04/08 08:21:24;;;;;;;3.45;1.35;;;8.30;99.90;;;;;;5041203;28;20136;-74
2022/04/08 08:23:51;;;;;;;4.95;1.60;;;8.50;99.90;;;;;;5019430;28;20030;-75
2022/04/08 08:26:16;;;;;;;4.78;1.40;;;8.60;99.90;;;;;;5072027;28;20037;-74
2022/04/08 08:28:42;;;;;;;6.63;1.45;;;8.70;99.90;;;;;;5073289;28;20048;-77
2022/04/08 08:31:08;;;;;;;6.47;1.70;;;9.00;99.90;;;;;;5034198;28;20041;-73
2022/04/08 08:33:34;;;;;;;6.15;1.50;;;9.20;99.90;;;;;;5032650;28;20071;-74
2022/04/08 08:35:59;;;;;;;3.40;1.20;;;9.50;99.90;;;;;;5033573;28;20073;-77
2022/04/08 08:38:25;;;;;;;6.05;1.65;;;9.30;99.90;;;;;;5015757;28;20057;-72
2022/04/08 08:40:52;;;;;;;4.47;1.40;;;9.20;99.90;;;;;;5051892;28;20056;-73
2022/04/08 08:43:18;;;;;;;4.88;1.30;;;9.20;99.90;;;;;;5031526;28;20040;-73
2022/04/08 08:45:56;;;;;;;4.22;1.48;;;9.20;99.90;;;;;;5032931;28;20041;-74
2022/04/08 08:48:23;;;;;;;4.38;1.13;;;9.20;99.90;;;;;;5066545;28;20045;-74
2022/04/08 08:50:54;;;;;;;2.78;1.13;;;8.80;99.90;;;;;;5033336;28;20127;-75
2022/04/08 08:53:20;;;;;;;4.82;1.35;;;9.00;99.90;;;;;;5034252;28;20415;-74
2022/04/08 08:55:49;;;;;;;6.60;1.30;;;9.30;99.90;;;;;;5032713;28;20164;-76
2022/04/08 08:58:16;;;;;;;3.67;1.02;;;9.60;99.90;;;;;;5033071;28;20041;-76
2022/04/08 09:00:42;;;;;;;3.45;1.02;;;9.90;99.90;;;;;;5032047;28;20037;-72
2022/04/08 09:03:09;;;;;;;5.50;1.40;;;9.20;99.90;;;;;;5032954;28;20064;-76
2022/04/08 09:05:47;;;;;;;4.35;1.48;;;8.70;99.90;;;;;;5031515;28;20131;-73
2022/04/08 09:08:15;;;;;;;3.78;1.20;;;8.80;99.90;;;;;;5053921;28;20049;-74
2022/04/08 09:10:43;;;;;;;4.30;1.27;;;9.00;99.90;;;;;;5030971;28;20215;-74
2022/04/08 09:13:10;;;;;;;6.75;1.70;;;9.60;99.90;;;;;;5013191;28;20213;-73
2022/04/08 09:15:39;;;;;;;3.92;1.30;;;10.10;99.90;;;;;;5015970;28;20044;-73
2022/04/08 09:18:13;;;;;;;4.28;1.27;;;9.60;99.90;;;;;;5047595;28;20224;-73
2022/04/08 09:20:42;;;;;;;4.97;1.05;;;8.50;99.90;;;;;;5014731;28;20033;-73
2022/04/08 09:23:09;;;;;;;2.53;1.10;;;7.70;99.90;;;;;;5032811;28;20040;-72
2022/04/08 09:25:35;;;;;;;1.38;0.82;;;7.00;99.90;;;;;;5065925;28;20284;-74
2022/04/08 09:28:12;;;;;;;1.83;0.90;;;7.00;99.90;;;;;;5032460;28;20033;-75
2022/04/08 09:30:39;;;;;;;1.83;0.90;;;6.90;99.90;;;;;;5016815;28;20037;-73
2022/04/08 09:33:19;;;;;;;6.00;1.55;;;7.20;99.90;;;;;;5032164;28;20327;-73
2022/04/08 09:35:45;;;;;;;4.65;1.52;;;7.50;99.90;;;;;;5016663;28;20204;-72
2022/04/08 09:38:16;;;;;;;3.45;1.55;;;8.40;99.90;;;;;;5012011;28;20124;-73
2022/04/08 09:40:42;;;;;;;4.35;1.38;;;9.00;99.90;;;;;;5045464;28;20323;-73
2022/04/08 09:43:08;;;;;;;5.55;1.33;;;9.30;99.90;;;;;;4998047;28;20236;-71
2022/04/08 09:45:34;;;;;;;3.40;1.60;;;9.70;99.90;;;;;;5031348;28;20033;-74
2022/04/08 09:48:02;;;;;;;1.60;1.20;;;8.80;99.90;;;;;;5047926;28;20041;-74
2022/04/08 09:50:27;;;;;;;2.10;0.98;;;8.10;99.90;;;;;;5015862;28;20268;-74
2022/04/08 09:52:54;;;;;;;3.53;1.00;;;7.70;99.90;;;;;;5016830;28;20041;-73
2022/04/08 09:55:25;;;;;;;2.22;0.80;;;7.60;99.90;;;;;;5011759;28;20081;-76
2022/04/08 09:58:12;;;;;;;3.53;1.20;;;7.70;99.90;;;;;;5032067;28;20067;-75
2022/04/08 10:00:40;;;;;;;2.13;1.00;;;7.90;99.90;;;;;;5065894;28;20288;-76
2022/04/08 10:03:08;;;;;;;2.13;0.90;;;8.50;99.90;;;;;;5019393;28;20034;-74
2022/04/08 10:05:34;;;;;;;2.83;1.05;;;8.50;99.90;;;;;;5016046;28;20040;-75
2022/04/08 10:08:00;;;;;;;2.85;1.10;;;8.40;99.90;;;;;;5032670;28;20113;-73
2022/04/08 10:10:33;;;;;;;4.38;1.10;;;9.10;99.90;;;;;;5031684;28;20080;-75
2022/04/08 10:13:35;;;;;;;5.65;1.38;;;9.70;99.90;;;;;;5012432;28;20065;-73
2022/04/08 10:16:04;;;;;;;3.08;1.20;;;10.50;99.90;;;;;;5031930;28;20259;-73
2022/04/08 10:18:42;;;;;;;3.92;1.33;;;10.40;99.90;;;;;;5032907;28;20073;-72
2022/04/08 10:21:10;;;;;;;3.72;1.20;;;10.70;99.90;;;;;;5046268;28;20328;-75
2022/04/08 10:23:50;;;;;;;6.78;1.30;;;9.90;99.90;;;;;;5003895;28;20063;-76
2022/04/08 10:26:23;;;;;;;4.53;1.25;;;9.30;99.90;;;;;;5032101;28;20053;-74
2022/04/08 10:28:52;;;;;;;3.00;1.00;;;9.00;99.90;;;;;;5033140;28;20033;-74
2022/04/08 10:31:26;;;;;;;3.15;1.33;;;8.60;99.90;;;;;;5032256;28;20038;-75
2022/04/08 10:34:00;;;;;;;5.63;1.53;;;8.10;99.90;;;;;;5001360;28;20535;-75
2022/04/08 10:36:43;;;;;;;2.70;0.90;;;8.20;99.90;;;;;;5048828;28;20301;-73
2022/04/08 10:39:16;;;;;;;8.73;1.13;;;8.10;99.90;;;;;;5031974;28;20054;-74
2022/04/08 10:41:53;;;;;;;1.23;0.90;;;8.60;99.90;;;;;;5034911;28;20489;-72
2022/04/08 10:44:39;;;;;;;4.47;1.00;;;9.20;99.90;;;;;;5065786;28;20080;-73
2022/04/08 10:47:15;;;;;;;4.25;1.20;;;9.40;99.90;;;;;;5032230;28;20281;-75
2022/04/08 10:49:50;;;;;;;3.08;1.15;;;9.40;99.90;;;;;;5066756;28;20041;-75
2022/04/08 10:52:27;;;;;;;1.95;1.15;;;9.00;99.90;;;;;;5032342;28;20198;-73
2022/04/08 10:55:05;;;;;;;3.15;1.20;;;9.00;99.90;;;;;;5016176;28;20043;-74
2022/04/08 10:57:35;;;;;;;4.07;1.00;;;9.10;99.90;;;;;;5033049;28;20548;-74
2022/04/08 11:00:17;;;;;;;1.70;0.85;;;8.80;99.90;;;;;;5049566;28;20041;-73
2022/04/08 11:02:43;;;;;;;1.77;0.60;;;8.20;99.90;;;;;;5048646;28;20064;-73
2022/04/08 11:05:15;;;;;;;2.03;0.85;;;7.60;99.90;;;;;;5066171;28;20224;-74
2022/04/08 11:07:43;;;;;;;1.73;0.80;;;7.50;99.90;;;;;;5032693;28;20052;-73
2022/04/08 11:10:16;;;;;;;1.77;0.70;;;7.40;99.90;;;;;;4999582;28;20052;-75
2022/04/08 11:12:53;;;;;;;1.50;0.82;;;8.10;99.90;;;;;;5065804;28;20116;-72
2022/04/08 11:15:21;;;;;;;4.75;0.85;;;8.60;99.90;;;;;;5015383;28;20053;-73
2022/04/08 11:17:50;;;;;;;4.32;1.45;;;9.20;99.90;;;;;;5031863;28;20037;-72
2022/04/08 11:20:18;;;;;;;5.28;1.30;;;9.70;99.90;;;;;;5015777;28;20069;-74
2022/04/08 11:22:45;;;;;;;4.75;1.30;;;10.20;99.90;;;;;;5032254;28;20390;-74
2022/04/08 11:25:19;;;;;;;1.90;0.95;;;10.30;99.90;;;;;;5031910;28;20041;-72
2022/04/08 11:27:50;;;;;;;3.13;1.27;;;10.20;99.90;;;;;;5016188;28;20315;-73
2022/04/08 11:30:18;;;;;;;2.60;1.10;;;10.20;99.90;;;;;;5013058;28;20309;-73
2022/04/08 11:32:44;;;;;;;4.45;1.70;;;10.50;99.90;;;;;;5033932;28;20057;-74
2022/04/08 11:35:13;;;;;;;4.47;1.60;;;10.60;99.90;;;;;;5068924;28;20049;-75
2022/04/08 11:37:39;;;;;;;4.85;1.30;;;10.60;99.90;;;;;;5036090;28;20045;-75
2022/04/08 11:40:05;;;;;;;4.75;1.50;;;10.30;99.90;;;;;;5035493;28;20072;-74
2022/04/08 11:42:31;;;;;;;4.00;1.17;;;9.70;99.90;;;;;;5019284;28;20098;-76
2022/04/08 11:44:58;;;;;;;4.28;1.15;;;9.50;99.90;;;;;;5036129;28;20065;-74
2022/04/08 11:47:36;;;;;;;4.10;1.20;;;9.20;99.90;;;;;;5036071;28;20146;-73
2022/04/08 11:50:09;;;;;;;4.78;1.52;;;9.40;99.90;;;;;;5034812;28;20235;-73
2022/04/08 11:52:38;;;;;;;3.85;1.70;;;9.30;99.90;;;;;;5019104;28;20037;-74
2022/04/08 11:55:09;;;;;;;3.25;1.20;;;9.80;99.90;;;;;;5035286;28;20045;-74
2022/04/08 11:57:37;;;;;;;3.65;1.15;;;10.10;99.90;;;;;;5019284;28;20077;-74
2022/04/08 12:00:07;;;;;;;5.07;1.20;;;10.20;99.90;;;;;;5018747;28;20034;-79
2022/04/08 12:02:33;;;;;;;3.03;1.00;;;10.70;99.90;;;;;;5018817;28;20088;-78
2022/04/08 12:05:08;;;;;;;6.35;1.42;;;10.60;99.90;;;;;;5020033;28;20273;-78
2022/04/08 12:07:40;;;;;;;2.78;0.93;;;10.20;99.90;;;;;;5001038;28;20363;-74
2022/04/08 12:10:06;;;;;;;4.75;0.98;;;10.10;99.90;;;;;;5001886;28;20398;-73
2022/04/08 12:12:33;;;;;;;4.05;1.10;;;10.40;99.90;;;;;;5035302;28;20045;-75
2022/04/08 12:15:08;;;;;;;3.22;1.30;;;10.80;99.90;;;;;;5008776;28;20230;-74
2022/04/08 12:17:39;;;;;;;4.07;1.20;;;10.40;99.90;;;;;;5039084;28;20108;-73
2022/04/08 12:20:05;;;;;;;3.42;1.15;;;9.70;99.90;;;;;;5046463;28;20041;-74
2022/04/08 12:22:35;;;;;;;4.05;1.00;;;9.20;99.90;;;;;;5068098;28;20247;-75
2022/04/08 12:25:01;;;;;;;5.40;1.35;;;9.20;99.90;;;;;;5051788;28;20039;-74
2022/04/08 12:27:30;;;;;;;3.53;0.93;;;9.50;99.90;;;;;;5051679;28;20033;-75
2022/04/08 12:30:08;;;;;;;3.40;1.00;;;10.00;99.90;;;;;;5035112;28;20041;-74
2022/04/08 12:32:35;;;;;;;4.93;1.58;;;10.10;99.90;;;;;;5052807;28;20255;-76
2022/04/08 12:35:02;;;;;;;5.75;1.35;;;10.30;99.90;;;;;;5034038;28;20040;-74
2022/04/08 12:37:27;;;;;;;3.03;1.35;;;10.30;99.90;;;;;;5051338;28;20251;-73
2022/04/08 12:39:53;;;;;;;3.90;1.15;;;10.30;99.90;;;;;;5018098;28;20080;-74
2022/04/08 12:42:21;;;;;;;9.13;1.48;;;9.90;99.90;;;;;;5017708;28;20049;-76
2022/04/08 12:44:53;;;;;;;4.35;1.30;;;9.60;99.90;;;;;;5034688;28;20041;-75
2022/04/08 12:47:19;;;;;;;3.30;1.35;;;9.30;99.90;;;;;;5033477;28;20045;-73
2022/04/08 12:49:44;;;;;;;3.50;1.30;;;8.90;99.90;;;;;;5018167;28;20046;-74
2022/04/08 12:52:10;;;;;;;4.40;1.38;;;8.80;99.90;;;;;;5031165;28;20085;-74
2022/04/08 12:54:36;;;;;;;4.95;0.93;;;9.10;99.90;;;;;;5014822;28;20103;-72
2022/04/08 12:57:01;;;;;;;4.60;1.23;;;8.70;99.90;;;;;;5049319;28;20049;-73